sensor_id;sensor_type;location;lat;lon;timestamp;P1;durP1;ratioP1;P2;durP2;ratioP2
48268;SDS011;34088;52.232;5.196;2024-03-02T00:00:34;5.72;;;2.15;;
48268;SDS011;34088;52.232;5.196;2024-03-02T00:03:00;2.92;;;1.55;;
48268;SDS011;34088;52.232;5.196;2024-03-02T00:05:25;3.20;;;1.73;;
48268;SDS011;34088;52.232;5.196;2024-03-02T00:07:57;2.13;;;1.30;;
48268;SDS011;34088;52.232;5.196;2024-03-02T00:10:26;3.60;;;1.60;;
48268;SDS011;34088;52.232;5.196;2024-03-02T00:13:02;4.10;;;1.70;;
48268;SDS011;34088;52.232;5.196;2024-03-02T00:17:56;4.22;;;1.92;;
48268;SDS011;34088;52.232;5.196;2024-03-02T00:33:30;2.63;;;1.50;;
48268;SDS011;34088;52.232;5.196;2024-03-02T00:35:58;2.75;;;1.10;;
48268;SDS011;34088;52.232;5.196;2024-03-02T00:38:24;1.65;;;0.80;;
48268;SDS011;34088;52.232;5.196;2024-03-02T00:40:50;1.20;;;0.73;;
48268;SDS011;34088;52.232;5.196;2024-03-02T00:46:06;1.70;;;0.40;;
48268;SDS011;34088;52.232;5.196;2024-03-02T00:48:31;0.85;;;0.50;;
48268;SDS011;34088;52.232;5.196;2024-03-02T00:53:23;0.67;;;0.57;;
48268;SDS011;34088;52.232;5.196;2024-03-02T00:55:51;1.27;;;0.57;;
48268;SDS011;34088;52.232;5.196;2024-03-02T00:58:16;1.55;;;0.47;;
48268;SDS011;34088;52.232;5.196;2024-03-02T01:00:42;0.90;;;0.50;;
48268;SDS011;34088;52.232;5.196;2024-03-02T01:03:07;1.35;;;0.60;;
48268;SDS011;34088;52.232;5.196;2024-03-02T01:05:33;0.60;;;0.60;;
48268;SDS011;34088;52.232;5.196;2024-03-02T01:07:58;0.90;;;0.60;;
48268;SDS011;34088;52.232;5.196;2024-03-02T01:12:50;1.58;;;0.55;;
48268;SDS011;34088;52.232;5.196;2024-03-02T01:15:16;0.70;;;0.40;;
48268;SDS011;34088;52.232;5.196;2024-03-02T01:17:41;0.82;;;0.40;;
48268;SDS011;34088;52.232;5.196;2024-03-02T01:22:33;2.53;;;0.60;;
48268;SDS011;34088;52.232;5.196;2024-03-02T01:24:58;1.27;;;0.55;;
48268;SDS011;34088;52.232;5.196;2024-03-02T01:27:23;2.13;;;0.60;;
48268;SDS011;34088;52.232;5.196;2024-03-02T01:29:49;1.23;;;0.47;;
48268;SDS011;34088;52.232;5.196;2024-03-02T01:32:14;0.70;;;0.60;;
48268;SDS011;34088;52.232;5.196;2024-03-02T01:34:40;0.70;;;0.50;;
48268;SDS011;34088;52.232;5.196;2024-03-02T01:37:06;0.80;;;0.70;;
48268;SDS011;34088;52.232;5.196;2024-03-02T01:39:31;1.83;;;0.70;;
48268;SDS011;34088;52.232;5.196;2024-03-02T01:44:21;1.27;;;0.70;;
48268;SDS011;34088;52.232;5.196;2024-03-02T01:46:47;1.90;;;0.63;;
48268;SDS011;34088;52.232;5.196;2024-03-02T01:49:12;1.13;;;0.77;;
48268;SDS011;34088;52.232;5.196;2024-03-02T01:51:37;1.30;;;0.73;;
48268;SDS011;34088;52.232;5.196;2024-03-02T01:54:03;0.90;;;0.63;;
48268;SDS011;34088;52.232;5.196;2024-03-02T01:56:28;1.70;;;0.80;;
48268;SDS011;34088;52.232;5.196;2024-03-02T02:01:19;2.55;;;1.00;;
48268;SDS011;34088;52.232;5.196;2024-03-02T02:03:44;1.73;;;0.80;;
48268;SDS011;34088;52.232;5.196;2024-03-02T02:06:09;1.38;;;0.63;;
48268;SDS011;34088;52.232;5.196;2024-03-02T02:08:36;1.25;;;0.80;;
48268;SDS011;34088;52.232;5.196;2024-03-02T02:11:02;2.00;;;0.90;;
48268;SDS011;34088;52.232;5.196;2024-03-02T02:13:27;1.10;;;0.75;;
48268;SDS011;34088;52.232;5.196;2024-03-02T02:15:53;0.82;;;0.68;;
48268;SDS011;34088;52.232;5.196;2024-03-02T02:18:18;1.35;;;0.90;;
48268;SDS011;34088;52.232;5.196;2024-03-02T02:20:43;1.10;;;0.70;;
48268;SDS011;34088;52.232;5.196;2024-03-02T02:23:09;1.17;;;0.90;;
48268;SDS011;34088;52.232;5.196;2024-03-02T02:25:34;2.05;;;0.98;;
48268;SDS011;34088;52.232;5.196;2024-03-02T02:28:00;1.10;;;0.88;;
48268;SDS011;34088;52.232;5.196;2024-03-02T02:30:26;1.30;;;0.80;;
48268;SDS011;34088;52.232;5.196;2024-03-02T02:32:56;1.48;;;0.90;;
48268;SDS011;34088;52.232;5.196;2024-03-02T02:35:21;1.60;;;0.80;;
48268;SDS011;34088;52.232;5.196;2024-03-02T02:37:47;0.80;;;0.73;;
48268;SDS011;34088;52.232;5.196;2024-03-02T02:40:13;2.53;;;1.25;;
48268;SDS011;34088;52.232;5.196;2024-03-02T02:42:39;1.45;;;0.80;;
48268;SDS011;34088;52.232;5.196;2024-03-02T02:45:07;1.52;;;0.70;;
48268;SDS011;34088;52.232;5.196;2024-03-02T02:47:34;1.02;;;0.73;;
48268;SDS011;34088;52.232;5.196;2024-03-02T02:50:03;1.25;;;0.80;;
48268;SDS011;34088;52.232;5.196;2024-03-02T02:52:35;0.90;;;0.60;;
48268;SDS011;34088;52.232;5.196;2024-03-02T02:55:05;2.47;;;1.00;;
48268;SDS011;34088;52.232;5.196;2024-03-02T02:57:32;1.48;;;0.80;;
48268;SDS011;34088;52.232;5.196;2024-03-02T03:00:01;2.35;;;0.75;;
48268;SDS011;34088;52.232;5.196;2024-03-02T03:02:30;1.58;;;1.00;;
48268;SDS011;34088;52.232;5.196;2024-03-02T03:04:55;1.52;;;0.93;;
48268;SDS011;34088;52.232;5.196;2024-03-02T03:07:22;1.85;;;1.00;;
48268;SDS011;34088;52.232;5.196;2024-03-02T03:09:47;1.98;;;1.00;;
48268;SDS011;34088;52.232;5.196;2024-03-02T03:12:13;2.63;;;1.00;;
48268;SDS011;34088;52.232;5.196;2024-03-02T03:17:05;2.60;;;1.00;;
48268;SDS011;34088;52.232;5.196;2024-03-02T03:19:31;1.10;;;0.80;;
48268;SDS011;34088;52.232;5.196;2024-03-02T03:21:57;2.07;;;0.90;;
48268;SDS011;34088;52.232;5.196;2024-03-02T03:26:47;2.10;;;0.83;;
48268;SDS011;34088;52.232;5.196;2024-03-02T03:29:12;2.17;;;1.00;;
48268;SDS011;34088;52.232;5.196;2024-03-02T03:31:38;3.58;;;0.90;;
48268;SDS011;34088;52.232;5.196;2024-03-02T03:34:03;1.30;;;0.70;;
48268;SDS011;34088;52.232;5.196;2024-03-02T03:36:28;1.47;;;0.80;;
48268;SDS011;34088;52.232;5.196;2024-03-02T03:38:54;2.10;;;0.80;;
48268;SDS011;34088;52.232;5.196;2024-03-02T03:41:19;1.83;;;0.97;;
48268;SDS011;34088;52.232;5.196;2024-03-02T03:43:44;1.57;;;0.80;;
48268;SDS011;34088;52.232;5.196;2024-03-02T03:46:09;2.20;;;0.90;;
48268;SDS011;34088;52.232;5.196;2024-03-02T03:48:35;2.73;;;0.90;;
48268;SDS011;34088;52.232;5.196;2024-03-02T03:51:00;2.03;;;0.90;;
48268;SDS011;34088;52.232;5.196;2024-03-02T03:53:25;2.17;;;0.70;;
48268;SDS011;34088;52.232;5.196;2024-03-02T03:55:50;1.38;;;0.60;;
48268;SDS011;34088;52.232;5.196;2024-03-02T03:58:16;2.50;;;0.70;;
48268;SDS011;34088;52.232;5.196;2024-03-02T04:00:43;1.88;;;0.60;;
48268;SDS011;34088;52.232;5.196;2024-03-02T04:03:09;2.28;;;0.60;;
48268;SDS011;34088;52.232;5.196;2024-03-02T04:05:34;3.07;;;0.53;;
48268;SDS011;34088;52.232;5.196;2024-03-02T04:07:59;0.77;;;0.60;;
48268;SDS011;34088;52.232;5.196;2024-03-02T04:10:25;2.85;;;0.77;;
48268;SDS011;34088;52.232;5.196;2024-03-02T04:12:51;1.88;;;0.60;;
48268;SDS011;34088;52.232;5.196;2024-03-02T04:15:16;1.25;;;0.50;;
48268;SDS011;34088;52.232;5.196;2024-03-02T04:17:43;1.15;;;0.52;;
48268;SDS011;34088;52.232;5.196;2024-03-02T04:20:08;0.90;;;0.50;;
48268;SDS011;34088;52.232;5.196;2024-03-02T04:22:34;1.67;;;0.50;;
48268;SDS011;34088;52.232;5.196;2024-03-02T04:27:26;2.63;;;0.80;;
48268;SDS011;34088;52.232;5.196;2024-03-02T04:29:51;1.90;;;0.80;;
48268;SDS011;34088;52.232;5.196;2024-03-02T04:32:16;1.95;;;0.70;;
48268;SDS011;34088;52.232;5.196;2024-03-02T04:34:42;2.17;;;0.70;;
48268;SDS011;34088;52.232;5.196;2024-03-02T04:37:08;1.63;;;0.65;;
48268;SDS011;34088;52.232;5.196;2024-03-02T04:41:59;0.85;;;0.60;;
48268;SDS011;34088;52.232;5.196;2024-03-02T04:44:25;3.47;;;1.00;;
48268;SDS011;34088;52.232;5.196;2024-03-02T04:46:50;1.23;;;0.60;;
48268;SDS011;34088;52.232;5.196;2024-03-02T04:49:16;3.03;;;0.70;;
48268;SDS011;34088;52.232;5.196;2024-03-02T04:51:41;2.80;;;0.80;;
48268;SDS011;34088;52.232;5.196;2024-03-02T04:54:06;1.17;;;0.63;;
48268;SDS011;34088;52.232;5.196;2024-03-02T04:58:56;1.27;;;0.60;;
48268;SDS011;34088;52.232;5.196;2024-03-02T05:01:22;1.60;;;0.80;;
48268;SDS011;34088;52.232;5.196;2024-03-02T05:03:47;1.35;;;0.70;;
48268;SDS011;34088;52.232;5.196;2024-03-02T05:06:13;1.67;;;0.70;;
48268;SDS011;34088;52.232;5.196;2024-03-02T05:08:38;1.30;;;0.70;;
48268;SDS011;34088;52.232;5.196;2024-03-02T05:11:03;1.77;;;0.80;;
48268;SDS011;34088;52.232;5.196;2024-03-02T05:13:57;1.58;;;0.75;;
48268;SDS011;34088;52.232;5.196;2024-03-02T05:16:23;3.43;;;1.00;;
48268;SDS011;34088;52.232;5.196;2024-03-02T05:18:48;1.97;;;0.80;;
48268;SDS011;34088;52.232;5.196;2024-03-02T05:21:13;1.48;;;0.70;;
48268;SDS011;34088;52.232;5.196;2024-03-02T05:23:39;2.20;;;0.87;;
48268;SDS011;34088;52.232;5.196;2024-03-02T05:26:04;2.77;;;0.80;;
48268;SDS011;34088;52.232;5.196;2024-03-02T05:28:29;1.75;;;0.70;;
48268;SDS011;34088;52.232;5.196;2024-03-02T05:30:55;2.15;;;1.02;;
48268;SDS011;34088;52.232;5.196;2024-03-02T05:33:20;1.30;;;0.80;;
48268;SDS011;34088;52.232;5.196;2024-03-02T05:35:47;1.98;;;0.68;;
48268;SDS011;34088;52.232;5.196;2024-03-02T05:38:14;4.35;;;1.00;;
48268;SDS011;34088;52.232;5.196;2024-03-02T05:40:41;4.05;;;1.00;;
48268;SDS011;34088;52.232;5.196;2024-03-02T05:43:06;3.17;;;1.00;;
48268;SDS011;34088;52.232;5.196;2024-03-02T05:45:32;2.65;;;0.70;;
48268;SDS011;34088;52.232;5.196;2024-03-02T05:47:57;3.58;;;0.80;;
48268;SDS011;34088;52.232;5.196;2024-03-02T05:50:23;3.28;;;0.88;;
48268;SDS011;34088;52.232;5.196;2024-03-02T05:52:48;1.63;;;0.70;;
48268;SDS011;34088;52.232;5.196;2024-03-02T05:55:13;3.07;;;0.80;;
48268;SDS011;34088;52.232;5.196;2024-03-02T05:57:39;3.73;;;0.70;;
48268;SDS011;34088;52.232;5.196;2024-03-02T06:00:08;1.63;;;0.70;;
48268;SDS011;34088;52.232;5.196;2024-03-02T06:02:34;4.47;;;0.68;;
48268;SDS011;34088;52.232;5.196;2024-03-02T06:05:00;2.72;;;1.05;;
48268;SDS011;34088;52.232;5.196;2024-03-02T06:07:25;3.33;;;0.80;;
48268;SDS011;34088;52.232;5.196;2024-03-02T06:09:51;4.72;;;1.13;;
48268;SDS011;34088;52.232;5.196;2024-03-02T06:12:17;2.10;;;0.50;;
48268;SDS011;34088;52.232;5.196;2024-03-02T06:14:43;1.45;;;0.70;;
48268;SDS011;34088;52.232;5.196;2024-03-02T06:17:08;2.00;;;0.63;;
48268;SDS011;34088;52.232;5.196;2024-03-02T06:19:33;2.73;;;0.70;;
48268;SDS011;34088;52.232;5.196;2024-03-02T06:21:59;3.97;;;1.10;;
48268;SDS011;34088;52.232;5.196;2024-03-02T06:24:24;2.23;;;0.80;;
48268;SDS011;34088;52.232;5.196;2024-03-02T06:26:51;3.78;;;0.60;;
48268;SDS011;34088;52.232;5.196;2024-03-02T06:29:17;5.47;;;0.73;;
48268;SDS011;34088;52.232;5.196;2024-03-02T06:31:42;3.58;;;0.80;;
48268;SDS011;34088;52.232;5.196;2024-03-02T06:34:07;5.10;;;1.23;;
48268;SDS011;34088;52.232;5.196;2024-03-02T06:36:33;5.43;;;1.00;;
48268;SDS011;34088;52.232;5.196;2024-03-02T06:38:59;3.25;;;0.90;;
48268;SDS011;34088;52.232;5.196;2024-03-02T06:41:24;3.83;;;0.80;;
48268;SDS011;34088;52.232;5.196;2024-03-02T06:43:51;6.47;;;1.10;;
48268;SDS011;34088;52.232;5.196;2024-03-02T06:46:24;1.80;;;0.60;;
48268;SDS011;34088;52.232;5.196;2024-03-02T06:48:49;3.70;;;0.98;;
48268;SDS011;34088;52.232;5.196;2024-03-02T06:51:15;3.85;;;0.90;;
48268;SDS011;34088;52.232;5.196;2024-03-02T06:53:40;3.88;;;0.70;;
48268;SDS011;34088;52.232;5.196;2024-03-02T06:56:06;2.20;;;0.70;;
48268;SDS011;34088;52.232;5.196;2024-03-02T06:58:33;3.17;;;0.85;;
48268;SDS011;34088;52.232;5.196;2024-03-02T07:00:58;2.77;;;0.97;;
48268;SDS011;34088;52.232;5.196;2024-03-02T07:03:25;3.15;;;0.80;;
48268;SDS011;34088;52.232;5.196;2024-03-02T07:05:50;2.35;;;0.70;;
48268;SDS011;34088;52.232;5.196;2024-03-02T07:08:16;4.00;;;0.80;;
48268;SDS011;34088;52.232;5.196;2024-03-02T07:10:41;3.08;;;0.90;;
48268;SDS011;34088;52.232;5.196;2024-03-02T07:13:06;2.65;;;0.93;;
48268;SDS011;34088;52.232;5.196;2024-03-02T07:15:32;4.22;;;0.80;;
48268;SDS011;34088;52.232;5.196;2024-03-02T07:18:15;3.22;;;0.80;;
48268;SDS011;34088;52.232;5.196;2024-03-02T07:20:41;3.33;;;0.80;;
48268;SDS011;34088;52.232;5.196;2024-03-02T07:23:06;2.35;;;0.77;;
48268;SDS011;34088;52.232;5.196;2024-03-02T07:25:31;3.38;;;0.82;;
48268;SDS011;34088;52.232;5.196;2024-03-02T07:27:56;4.50;;;1.10;;
48268;SDS011;34088;52.232;5.196;2024-03-02T07:30:22;3.70;;;0.90;;
48268;SDS011;34088;52.232;5.196;2024-03-02T07:32:49;2.95;;;0.82;;
48268;SDS011;34088;52.232;5.196;2024-03-02T07:35:15;3.25;;;0.82;;
48268;SDS011;34088;52.232;5.196;2024-03-02T07:37:41;3.97;;;1.20;;
48268;SDS011;34088;52.232;5.196;2024-03-02T07:40:07;3.47;;;1.00;;
48268;SDS011;34088;52.232;5.196;2024-03-02T07:42:36;1.95;;;0.70;;
48268;SDS011;34088;52.232;5.196;2024-03-02T07:45:02;3.50;;;0.88;;
48268;SDS011;34088;52.232;5.196;2024-03-02T07:47:28;2.72;;;0.73;;
48268;SDS011;34088;52.232;5.196;2024-03-02T07:49:53;4.68;;;0.98;;
48268;SDS011;34088;52.232;5.196;2024-03-02T07:54:44;3.77;;;0.87;;
48268;SDS011;34088;52.232;5.196;2024-03-02T07:57:09;2.77;;;0.80;;
48268;SDS011;34088;52.232;5.196;2024-03-02T07:59:35;3.08;;;0.77;;
48268;SDS011;34088;52.232;5.196;2024-03-02T08:04:26;1.75;;;0.70;;
48268;SDS011;34088;52.232;5.196;2024-03-02T08:06:52;2.75;;;0.93;;
48268;SDS011;34088;52.232;5.196;2024-03-02T08:09:17;3.97;;;1.00;;
48268;SDS011;34088;52.232;5.196;2024-03-02T08:11:42;2.13;;;0.70;;
48268;SDS011;34088;52.232;5.196;2024-03-02T08:14:08;2.70;;;0.98;;
48268;SDS011;34088;52.232;5.196;2024-03-02T08:16:33;4.75;;;1.10;;
48268;SDS011;34088;52.232;5.196;2024-03-02T08:18:59;3.10;;;0.80;;
48268;SDS011;34088;52.232;5.196;2024-03-02T08:21:24;3.78;;;0.90;;
48268;SDS011;34088;52.232;5.196;2024-03-02T08:26:16;2.70;;;0.80;;
48268;SDS011;34088;52.232;5.196;2024-03-02T08:28:41;6.03;;;1.10;;
48268;SDS011;34088;52.232;5.196;2024-03-02T08:31:07;6.32;;;0.90;;
48268;SDS011;34088;52.232;5.196;2024-03-02T08:33:32;3.70;;;1.10;;
48268;SDS011;34088;52.232;5.196;2024-03-02T08:38:24;3.22;;;0.85;;
48268;SDS011;34088;52.232;5.196;2024-03-02T08:40:49;3.08;;;0.95;;
48268;SDS011;34088;52.232;5.196;2024-03-02T08:43:15;2.35;;;0.80;;
48268;SDS011;34088;52.232;5.196;2024-03-02T08:45:40;7.10;;;1.20;;
48268;SDS011;34088;52.232;5.196;2024-03-02T08:48:09;4.10;;;0.80;;
48268;SDS011;34088;52.232;5.196;2024-03-02T08:50:35;7.18;;;1.13;;
48268;SDS011;34088;52.232;5.196;2024-03-02T08:55:26;4.85;;;1.10;;
48268;SDS011;34088;52.232;5.196;2024-03-02T09:00:16;3.75;;;0.77;;
48268;SDS011;34088;52.232;5.196;2024-03-02T09:02:43;3.45;;;1.15;;
48268;SDS011;34088;52.232;5.196;2024-03-02T09:05:09;6.95;;;1.10;;
48268;SDS011;34088;52.232;5.196;2024-03-02T09:07:35;1.80;;;0.70;;
48268;SDS011;34088;52.232;5.196;2024-03-02T09:12:25;3.43;;;1.30;;
48268;SDS011;34088;52.232;5.196;2024-03-02T09:14:50;4.60;;;1.00;;
48268;SDS011;34088;52.232;5.196;2024-03-02T09:19:41;5.07;;;1.00;;
48268;SDS011;34088;52.232;5.196;2024-03-02T09:24:32;3.77;;;0.97;;
48268;SDS011;34088;52.232;5.196;2024-03-02T09:27:00;5.05;;;1.13;;
48268;SDS011;34088;52.232;5.196;2024-03-02T09:31:51;6.40;;;1.00;;
48268;SDS011;34088;52.232;5.196;2024-03-02T09:36:42;5.80;;;1.50;;
48268;SDS011;34088;52.232;5.196;2024-03-02T09:41:34;5.00;;;1.30;;
48268;SDS011;34088;52.232;5.196;2024-03-02T09:44:01;3.72;;;0.95;;
48268;SDS011;34088;52.232;5.196;2024-03-02T09:46:27;4.10;;;0.95;;
48268;SDS011;34088;52.232;5.196;2024-03-02T09:51:18;5.45;;;1.15;;
48268;SDS011;34088;52.232;5.196;2024-03-02T09:53:44;10.43;;;1.40;;
48268;SDS011;34088;52.232;5.196;2024-03-02T09:56:12;5.95;;;1.40;;
48268;SDS011;34088;52.232;5.196;2024-03-02T10:01:05;15.85;;;2.20;;
48268;SDS011;34088;52.232;5.196;2024-03-02T10:03:31;7.03;;;1.33;;
48268;SDS011;34088;52.232;5.196;2024-03-02T10:08:46;8.02;;;1.30;;
48268;SDS011;34088;52.232;5.196;2024-03-02T10:11:25;7.75;;;1.30;;
48268;SDS011;34088;52.232;5.196;2024-03-02T10:14:05;5.32;;;1.30;;
48268;SDS011;34088;52.232;5.196;2024-03-02T10:16:38;5.13;;;1.25;;
48268;SDS011;34088;52.232;5.196;2024-03-02T10:19:18;5.40;;;1.25;;
48268;SDS011;34088;52.232;5.196;2024-03-02T10:21:52;5.53;;;1.30;;
48268;SDS011;34088;52.232;5.196;2024-03-02T10:24:18;6.40;;;1.48;;
48268;SDS011;34088;52.232;5.196;2024-03-02T10:26:45;8.10;;;1.50;;
48268;SDS011;34088;52.232;5.196;2024-03-02T10:31:40;5.38;;;1.30;;
48268;SDS011;34088;52.232;5.196;2024-03-02T10:34:07;4.05;;;1.10;;
48268;SDS011;34088;52.232;5.196;2024-03-02T10:36:36;6.03;;;1.38;;
48268;SDS011;34088;52.232;5.196;2024-03-02T10:39:05;8.52;;;1.30;;
48268;SDS011;34088;52.232;5.196;2024-03-02T10:41:32;5.60;;;1.48;;
48268;SDS011;34088;52.232;5.196;2024-03-02T10:44:01;6.60;;;1.10;;
48268;SDS011;34088;52.232;5.196;2024-03-02T10:46:28;7.70;;;1.50;;
48268;SDS011;34088;52.232;5.196;2024-03-02T10:48:58;4.45;;;1.20;;
48268;SDS011;34088;52.232;5.196;2024-03-02T10:51:28;6.38;;;0.98;;
48268;SDS011;34088;52.232;5.196;2024-03-02T10:53:56;7.07;;;1.25;;
48268;SDS011;34088;52.232;5.196;2024-03-02T10:56:29;5.55;;;1.33;;
48268;SDS011;34088;52.232;5.196;2024-03-02T10:58:58;10.35;;;1.27;;
48268;SDS011;34088;52.232;5.196;2024-03-02T11:01:29;5.25;;;1.10;;
48268;SDS011;34088;52.232;5.196;2024-03-02T11:03:56;5.43;;;1.10;;
48268;SDS011;34088;52.232;5.196;2024-03-02T11:06:23;7.07;;;1.73;;
48268;SDS011;34088;52.232;5.196;2024-03-02T11:08:51;5.03;;;1.25;;
48268;SDS011;34088;52.232;5.196;2024-03-02T11:11:26;5.80;;;1.13;;
48268;SDS011;34088;52.232;5.196;2024-03-02T11:13:56;3.97;;;1.30;;
48268;SDS011;34088;52.232;5.196;2024-03-02T11:16:33;6.88;;;0.95;;
48268;SDS011;34088;52.232;5.196;2024-03-02T11:19:05;5.88;;;1.67;;
48268;SDS011;34088;52.232;5.196;2024-03-02T11:21:33;5.75;;;1.17;;
48268;SDS011;34088;52.232;5.196;2024-03-02T11:23:59;3.95;;;1.17;;
48268;SDS011;34088;52.232;5.196;2024-03-02T11:26:24;4.30;;;1.05;;
48268;SDS011;34088;52.232;5.196;2024-03-02T11:31:15;5.65;;;1.20;;
48268;SDS011;34088;52.232;5.196;2024-03-02T11:36:06;4.88;;;1.02;;
48268;SDS011;34088;52.232;5.196;2024-03-02T11:38:33;4.90;;;1.33;;
48268;SDS011;34088;52.232;5.196;2024-03-02T11:41:02;4.25;;;0.98;;
48268;SDS011;34088;52.232;5.196;2024-03-02T11:43:33;6.28;;;1.23;;
48268;SDS011;34088;52.232;5.196;2024-03-02T11:46:05;3.58;;;0.90;;
48268;SDS011;34088;52.232;5.196;2024-03-02T11:48:34;4.22;;;0.93;;
48268;SDS011;34088;52.232;5.196;2024-03-02T11:51:01;6.70;;;0.95;;
48268;SDS011;34088;52.232;5.196;2024-03-02T11:55:57;4.57;;;1.05;;
48268;SDS011;34088;52.232;5.196;2024-03-02T11:58:24;5.07;;;0.88;;
48268;SDS011;34088;52.232;5.196;2024-03-02T12:00:51;4.10;;;1.08;;
48268;SDS011;34088;52.232;5.196;2024-03-02T12:03:17;4.85;;;1.23;;
48268;SDS011;34088;52.232;5.196;2024-03-02T12:08:08;4.38;;;0.90;;
48268;SDS011;34088;52.232;5.196;2024-03-02T12:10:37;3.55;;;0.90;;
48268;SDS011;34088;52.232;5.196;2024-03-02T12:13:04;4.88;;;0.80;;
48268;SDS011;34088;52.232;5.196;2024-03-02T12:15:33;4.20;;;0.88;;
48268;SDS011;34088;52.232;5.196;2024-03-02T12:17:59;3.50;;;0.98;;
48268;SDS011;34088;52.232;5.196;2024-03-02T12:20:26;2.65;;;0.93;;
48268;SDS011;34088;52.232;5.196;2024-03-02T12:22:54;2.88;;;0.93;;
48268;SDS011;34088;52.232;5.196;2024-03-02T12:25:26;5.72;;;1.10;;
48268;SDS011;34088;52.232;5.196;2024-03-02T12:30:21;5.72;;;1.25;;
48268;SDS011;34088;52.232;5.196;2024-03-02T12:32:48;6.90;;;1.10;;
48268;SDS011;34088;52.232;5.196;2024-03-02T12:35:14;5.57;;;1.15;;
48268;SDS011;34088;52.232;5.196;2024-03-02T12:37:43;4.85;;;0.88;;
48268;SDS011;34088;52.232;5.196;2024-03-02T12:40:13;4.28;;;0.80;;
48268;SDS011;34088;52.232;5.196;2024-03-02T12:42:39;4.63;;;1.15;;
48268;SDS011;34088;52.232;5.196;2024-03-02T12:45:07;4.88;;;1.00;;
48268;SDS011;34088;52.232;5.196;2024-03-02T12:47:33;4.45;;;1.00;;
48268;SDS011;34088;52.232;5.196;2024-03-02T12:49:59;3.83;;;0.77;;
48268;SDS011;34088;52.232;5.196;2024-03-02T12:54:50;8.00;;;1.25;;
48268;SDS011;34088;52.232;5.196;2024-03-02T12:57:17;4.20;;;0.95;;
48268;SDS011;34088;52.232;5.196;2024-03-02T12:59:46;2.72;;;0.85;;
48268;SDS011;34088;52.232;5.196;2024-03-02T13:02:18;2.63;;;0.80;;
48268;SDS011;34088;52.232;5.196;2024-03-02T13:04:44;2.08;;;0.80;;
48268;SDS011;34088;52.232;5.196;2024-03-02T13:09:35;13.88;;;1.63;;
48268;SDS011;34088;52.232;5.196;2024-03-02T13:14:26;4.28;;;1.10;;
48268;SDS011;34088;52.232;5.196;2024-03-02T13:16:51;5.32;;;1.20;;
48268;SDS011;34088;52.232;5.196;2024-03-02T13:21:44;9.30;;;1.40;;
48268;SDS011;34088;52.232;5.196;2024-03-02T13:26:34;4.10;;;0.90;;
48268;SDS011;34088;52.232;5.196;2024-03-02T13:29:00;4.65;;;1.20;;
48268;SDS011;34088;52.232;5.196;2024-03-02T13:33:51;4.88;;;0.93;;
48268;SDS011;34088;52.232;5.196;2024-03-02T13:36:16;3.60;;;1.10;;
48268;SDS011;34088;52.232;5.196;2024-03-02T13:41:07;6.90;;;1.17;;
48268;SDS011;34088;52.232;5.196;2024-03-02T13:45:59;8.47;;;1.43;;
48268;SDS011;34088;52.232;5.196;2024-03-02T13:48:25;4.03;;;0.95;;
48268;SDS011;34088;52.232;5.196;2024-03-02T13:50:53;4.88;;;1.20;;
48268;SDS011;34088;52.232;5.196;2024-03-02T13:55:44;4.95;;;1.10;;
48268;SDS011;34088;52.232;5.196;2024-03-02T14:00:35;5.10;;;1.13;;
48268;SDS011;34088;52.232;5.196;2024-03-02T14:03:02;4.28;;;1.10;;
48268;SDS011;34088;52.232;5.196;2024-03-02T14:05:28;3.88;;;1.15;;
48268;SDS011;34088;52.232;5.196;2024-03-02T14:10:19;3.90;;;1.23;;
48268;SDS011;34088;52.232;5.196;2024-03-02T14:12:47;3.13;;;1.20;;
48268;SDS011;34088;52.232;5.196;2024-03-02T14:17:37;4.28;;;1.13;;
48268;SDS011;34088;52.232;5.196;2024-03-02T14:20:03;3.28;;;1.10;;
48268;SDS011;34088;52.232;5.196;2024-03-02T14:24:55;4.20;;;0.90;;
48268;SDS011;34088;52.232;5.196;2024-03-02T14:29:46;5.97;;;1.33;;
48268;SDS011;34088;52.232;5.196;2024-03-02T14:34:36;5.32;;;1.40;;
48268;SDS011;34088;52.232;5.196;2024-03-02T14:37:03;3.15;;;1.10;;
48268;SDS011;34088;52.232;5.196;2024-03-02T14:41:54;4.57;;;1.00;;
48268;SDS011;34088;52.232;5.196;2024-03-02T14:46:48;7.53;;;1.80;;
48268;SDS011;34088;52.232;5.196;2024-03-02T14:49:14;3.65;;;1.40;;
48268;SDS011;34088;52.232;5.196;2024-03-02T14:54:04;4.63;;;1.20;;
48268;SDS011;34088;52.232;5.196;2024-03-02T14:58:55;4.68;;;1.50;;
48268;SDS011;34088;52.232;5.196;2024-03-02T15:03:48;5.43;;;1.70;;
48268;SDS011;34088;52.232;5.196;2024-03-02T15:06:14;4.88;;;1.58;;
48268;SDS011;34088;52.232;5.196;2024-03-02T15:11:06;6.82;;;1.70;;
48268;SDS011;34088;52.232;5.196;2024-03-02T15:15:58;5.00;;;1.50;;
48268;SDS011;34088;52.232;5.196;2024-03-02T15:20:49;4.72;;;1.48;;
48268;SDS011;34088;52.232;5.196;2024-03-02T15:25:40;3.92;;;1.00;;
48268;SDS011;34088;52.232;5.196;2024-03-02T15:30:30;3.53;;;0.98;;
48268;SDS011;34088;52.232;5.196;2024-03-02T15:35:21;5.10;;;1.65;;
48268;SDS011;34088;52.232;5.196;2024-03-02T15:40:12;3.53;;;0.80;;
48268;SDS011;34088;52.232;5.196;2024-03-02T15:42:37;8.70;;;1.20;;
48268;SDS011;34088;52.232;5.196;2024-03-02T15:47:28;3.88;;;1.00;;
48268;SDS011;34088;52.232;5.196;2024-03-02T15:49:53;5.30;;;0.90;;
48268;SDS011;34088;52.232;5.196;2024-03-02T15:54:44;2.67;;;0.90;;
48268;SDS011;34088;52.232;5.196;2024-03-02T15:57:13;3.78;;;1.10;;
48268;SDS011;34088;52.232;5.196;2024-03-02T16:02:04;3.47;;;1.30;;
48268;SDS011;34088;52.232;5.196;2024-03-02T16:06:55;3.67;;;1.13;;
48268;SDS011;34088;52.232;5.196;2024-03-02T16:11:46;5.03;;;1.10;;
48268;SDS011;34088;52.232;5.196;2024-03-02T16:16:38;3.95;;;1.00;;
48268;SDS011;34088;52.232;5.196;2024-03-02T16:21:29;5.30;;;1.40;;
48268;SDS011;34088;52.232;5.196;2024-03-02T16:23:54;4.50;;;0.93;;
48268;SDS011;34088;52.232;5.196;2024-03-02T16:28:45;3.43;;;1.10;;
48268;SDS011;34088;52.232;5.196;2024-03-02T16:31:13;4.10;;;1.40;;
48268;SDS011;34088;52.232;5.196;2024-03-02T16:33:40;3.75;;;1.13;;
48268;SDS011;34088;52.232;5.196;2024-03-02T16:38:31;5.10;;;1.10;;
48268;SDS011;34088;52.232;5.196;2024-03-02T16:43:22;4.10;;;0.90;;
48268;SDS011;34088;52.232;5.196;2024-03-02T16:45:47;3.97;;;1.20;;
48268;SDS011;34088;52.232;5.196;2024-03-02T16:50:38;3.93;;;1.30;;
48268;SDS011;34088;52.232;5.196;2024-03-02T16:53:03;4.57;;;1.20;;
48268;SDS011;34088;52.232;5.196;2024-03-02T16:57:54;5.33;;;1.20;;
48268;SDS011;34088;52.232;5.196;2024-03-02T17:02:44;5.57;;;1.20;;
48268;SDS011;34088;52.232;5.196;2024-03-02T17:07:35;3.97;;;1.47;;
48268;SDS011;34088;52.232;5.196;2024-03-02T17:10:00;3.25;;;1.30;;
48268;SDS011;34088;52.232;5.196;2024-03-02T17:14:51;3.17;;;1.48;;
48268;SDS011;34088;52.232;5.196;2024-03-02T17:19:42;4.70;;;1.40;;
48268;SDS011;34088;52.232;5.196;2024-03-02T17:24:33;4.05;;;1.40;;
48268;SDS011;34088;52.232;5.196;2024-03-02T17:29:24;2.47;;;1.20;;
48268;SDS011;34088;52.232;5.196;2024-03-02T17:31:50;2.80;;;1.55;;
48268;SDS011;34088;52.232;5.196;2024-03-02T17:36:40;4.10;;;1.70;;
48268;SDS011;34088;52.232;5.196;2024-03-02T17:41:31;4.97;;;1.40;;
48268;SDS011;34088;52.232;5.196;2024-03-02T17:46:22;4.13;;;1.77;;
48268;SDS011;34088;52.232;5.196;2024-03-02T17:51:13;5.50;;;2.17;;
48268;SDS011;34088;52.232;5.196;2024-03-02T17:56:03;2.83;;;1.60;;
48268;SDS011;34088;52.232;5.196;2024-03-02T17:58:30;2.78;;;1.67;;
48268;SDS011;34088;52.232;5.196;2024-03-02T18:00:57;3.45;;;1.73;;
48268;SDS011;34088;52.232;5.196;2024-03-02T18:05:49;4.55;;;2.00;;
48268;SDS011;34088;52.232;5.196;2024-03-02T18:10:39;3.60;;;1.87;;
48268;SDS011;34088;52.232;5.196;2024-03-02T18:13:05;3.65;;;2.10;;
48268;SDS011;34088;52.232;5.196;2024-03-02T18:17:56;3.70;;;2.13;;
48268;SDS011;34088;52.232;5.196;2024-03-02T18:22:46;3.97;;;2.17;;
48268;SDS011;34088;52.232;5.196;2024-03-02T18:25:12;5.07;;;2.35;;
48268;SDS011;34088;52.232;5.196;2024-03-02T18:27:37;3.55;;;2.00;;